Mercator — FGG9060 — position and weather

sailwx.info

Track history (hours):
 
Tides and Currents Weather Stations Pressure Air Temp Water Temp Dewpoint Dewpoint Depression Visibility Wind Speed Wind Dir Waves Ship Positions

Mercator

Last reported at 2017-Dec-22 12:50 UTC. Time now 2018-Jan-22 02:42 UTC.
Position N 46°42' W 002°15'.
Warning: this ship's position is 30 days out of date.

Length 17 m; draft 2 m.

MMSI: 227060690.

Date/timePositionNaut miles runAvg speedWind from/ knotsBaromVisibWave heightAir tempDewpointWater temp
2017-Dec-22 12:50N 46°42' W 002°15'5 8.8
2017-Dec-22 12:14N 46°39' W 002°09'2 9.1
2017-Dec-22 11:58N 46°37' W 002°07'4 8.5
2017-Dec-22 11:30N 46°35' W 002°02'4 8.6
2017-Dec-22 11:00N 46°32' W 001°57'4 8.6
2017-Dec-22 10:30N 46°30' W 001°52'4 8.7
2017-Dec-22 10:00N 46°27' W 001°47'4 8.8
2017-Dec-22 09:30N 46°25' W 001°42'5 9.1
2017-Dec-22 09:00N 46°22' W 001°36'5 9.0
2017-Dec-22 08:30N 46°19' W 001°31'5 8.9
2017-Dec-22 07:55N 46°16' W 001°25'4 8.7
2017-Dec-22 07:30N 46°14' W 001°21'4 8.5
2017-Dec-22 07:00N 46°12' W 001°16'4 7.5
2017-Dec-22 06:30N 46°08' W 001°13'3 5.5
2017-Dec-22 06:00N 46°09' W 001°09'0 0.1
2017-Dec-22 05:29N 46°09' W 001°09'0 0.0
2017-Dec-22 04:59N 46°09' W 001°09'0 0.0
2017-Dec-22 04:29N 46°09' W 001°09'0 0.0
2017-Dec-22 03:59N 46°09' W 001°09'0 0.0
2017-Dec-22 03:29N 46°09' W 001°09'0 0.0
2017-Dec-22 02:59N 46°09' W 001°09'0 0.0
2017-Dec-22 02:29N 46°09' W 001°09'0 0.0
2017-Dec-22 01:59N 46°09' W 001°09'0 0.0
2017-Dec-22 01:29N 46°09' W 001°09'0 0.0
2017-Dec-22 00:59N 46°09' W 001°09'0 0.0
2017-Dec-22 00:29N 46°09' W 001°09'0 0.0
2017-Dec-21 23:59N 46°09' W 001°09'0 0.0
2017-Dec-21 23:29N 46°09' W 001°09'0 0.0
2017-Dec-21 22:59N 46°09' W 001°09'0 0.0
2017-Dec-21 22:29N 46°09' W 001°09'0 0.0
2017-Dec-21 21:58N 46°09' W 001°09'0 0.0
2017-Dec-21 21:28N 46°09' W 001°09'0 0.0
2017-Dec-21 20:58N 46°09' W 001°09'0 0.0
2017-Dec-21 20:28N 46°09' W 001°09'0 0.0
2017-Dec-21 19:58N 46°09' W 001°09'0 0.0
2017-Dec-21 19:29N 46°09' W 001°09'0 0.0
2017-Dec-21 18:59N 46°09' W 001°09'0 0.0
2017-Dec-21 18:29N 46°09' W 001°09'0 0.0
2017-Dec-21 17:59N 46°09' W 001°09'0 0.0
2017-Dec-21 17:29N 46°09' W 001°09'  
2017-Dec-15 10:24N 46°09' W 001°09'0 0.3
2017-Dec-15 10:00N 46°09' W 001°09'0 0.4
2017-Dec-15 09:25N 46°09' W 001°09'  
Track history (hours):
 
Tides and Currents Weather Stations Pressure Air Temp Water Temp Dewpoint Dewpoint Depression Visibility Wind Speed Wind Dir Waves Ship Positions

Mercator

Last reported at 2017-Dec-22 12:50 UTC. Time now 2018-Jan-22 02:42 UTC.
Position N 46°42' W 002°15'.
Warning: this ship's position is 30 days out of date.

Length 17 m; draft 2 m.

MMSI: 227060690.

Date/timePositionNaut miles runAvg speedWind from/ knotsBaromVisibWave heightAir tempDewpointWater temp
2017-Dec-22 12:50N 46°42' W 002°15'5 8.8
2017-Dec-22 12:14N 46°39' W 002°09'2 9.1
2017-Dec-22 11:58N 46°37' W 002°07'4 8.5
2017-Dec-22 11:30N 46°35' W 002°02'4 8.6
2017-Dec-22 11:00N 46°32' W 001°57'4 8.6
2017-Dec-22 10:30N 46°30' W 001°52'4 8.7
2017-Dec-22 10:00N 46°27' W 001°47'4 8.8
2017-Dec-22 09:30N 46°25' W 001°42'5 9.1
2017-Dec-22 09:00N 46°22' W 001°36'5 9.0
2017-Dec-22 08:30N 46°19' W 001°31'5 8.9
2017-Dec-22 07:55N 46°16' W 001°25'4 8.7
2017-Dec-22 07:30N 46°14' W 001°21'4 8.5
2017-Dec-22 07:00N 46°12' W 001°16'4 7.5
2017-Dec-22 06:30N 46°08' W 001°13'3 5.5
2017-Dec-22 06:00N 46°09' W 001°09'0 0.1
2017-Dec-22 05:29N 46°09' W 001°09'0 0.0
2017-Dec-22 04:59N 46°09' W 001°09'0 0.0
2017-Dec-22 04:29N 46°09' W 001°09'0 0.0
2017-Dec-22 03:59N 46°09' W 001°09'0 0.0
2017-Dec-22 03:29N 46°09' W 001°09'0 0.0
2017-Dec-22 02:59N 46°09' W 001°09'0 0.0
2017-Dec-22 02:29N 46°09' W 001°09'0 0.0
2017-Dec-22 01:59N 46°09' W 001°09'0 0.0
2017-Dec-22 01:29N 46°09' W 001°09'0 0.0
2017-Dec-22 00:59N 46°09' W 001°09'0 0.0
2017-Dec-22 00:29N 46°09' W 001°09'0 0.0
2017-Dec-21 23:59N 46°09' W 001°09'0 0.0
2017-Dec-21 23:29N 46°09' W 001°09'0 0.0
2017-Dec-21 22:59N 46°09' W 001°09'0 0.0
2017-Dec-21 22:29N 46°09' W 001°09'0 0.0
2017-Dec-21 21:58N 46°09' W 001°09'0 0.0
2017-Dec-21 21:28N 46°09' W 001°09'0 0.0
2017-Dec-21 20:58N 46°09' W 001°09'0 0.0
2017-Dec-21 20:28N 46°09' W 001°09'0 0.0
2017-Dec-21 19:58N 46°09' W 001°09'0 0.0
2017-Dec-21 19:29N 46°09' W 001°09'0 0.0
2017-Dec-21 18:59N 46°09' W 001°09'0 0.0
2017-Dec-21 18:29N 46°09' W 001°09'0 0.0
2017-Dec-21 17:59N 46°09' W 001°09'0 0.0
2017-Dec-21 17:29N 46°09' W 001°09'  
2017-Dec-15 10:24N 46°09' W 001°09'0 0.3
2017-Dec-15 10:00N 46°09' W 001°09'0 0.4
2017-Dec-15 09:25N 46°09' W 001°09'  

Dump ship's entire track history